createdAt,value
2018-06-12T00:00:38.645Z,16.65
2018-06-12T00:03:07.171Z,17.90
2018-06-12T00:05:35.691Z,13.30
2018-06-12T00:08:04.267Z,16.73
2018-06-12T00:10:32.794Z,13.17
2018-06-12T00:13:01.343Z,17.27
2018-06-12T00:15:29.875Z,13.17
2018-06-12T00:17:58.766Z,13.22
2018-06-12T00:20:27.274Z,15.83
2018-06-12T00:22:55.838Z,16.13
2018-06-12T00:25:24.360Z,15.23
2018-06-12T00:27:52.904Z,26.07
2018-06-12T00:30:21.426Z,16.83
2018-06-12T00:32:49.926Z,19.33
2018-06-12T00:35:18.438Z,16.77
2018-06-12T00:37:46.956Z,12.50
2018-06-12T00:40:15.533Z,15.80
2018-06-12T00:42:44.022Z,15.13
2018-06-12T00:45:12.537Z,20.68
2018-06-12T00:47:41.066Z,17.55
2018-06-12T00:50:09.593Z,15.13
2018-06-12T00:52:38.106Z,16.93
2018-06-12T00:55:06.650Z,15.05
2018-06-12T00:57:35.155Z,23.77
2018-06-12T01:00:03.746Z,20.27
2018-06-12T01:02:32.250Z,22.77
2018-06-12T01:05:00.756Z,22.00
2018-06-12T01:07:29.277Z,18.75
2018-06-12T01:09:57.773Z,23.83
2018-06-12T01:12:26.298Z,23.50
2018-06-12T01:14:54.854Z,17.17
2018-06-12T01:17:23.377Z,15.10
2018-06-12T01:19:51.891Z,16.40
2018-06-12T01:22:20.423Z,12.85
2018-06-12T01:24:48.966Z,18.77
2018-06-12T01:27:17.521Z,21.05
2018-06-12T01:29:46.045Z,15.60
2018-06-12T01:32:14.628Z,19.75
2018-06-12T01:34:43.167Z,20.92
2018-06-12T01:37:11.729Z,21.27
2018-06-12T01:39:40.244Z,17.45
2018-06-12T01:42:08.759Z,15.85
2018-06-12T01:44:37.305Z,25.15
2018-06-12T01:47:05.852Z,17.57
2018-06-12T01:49:34.344Z,18.17
2018-06-12T01:52:02.859Z,17.32
2018-06-12T01:54:31.359Z,19.17
2018-06-12T01:56:59.901Z,25.88
2018-06-12T01:59:28.400Z,18.52
2018-06-12T02:01:56.910Z,22.50
2018-06-12T02:04:25.434Z,17.25
2018-06-12T02:06:53.980Z,20.40
2018-06-12T02:09:22.452Z,19.73
2018-06-12T02:11:50.989Z,19.35
2018-06-12T02:14:19.512Z,21.17
2018-06-12T02:16:48.063Z,20.95
2018-06-12T02:19:16.558Z,25.70
2018-06-12T02:21:45.217Z,22.65
2018-06-12T02:24:13.868Z,25.27
2018-06-12T02:26:42.387Z,56.77
2018-06-12T02:29:10.947Z,49.27
2018-06-12T02:31:39.481Z,45.85
2018-06-12T02:34:08.021Z,50.67
2018-06-12T02:36:36.531Z,40.95
2018-06-12T02:39:07.266Z,41.10
2018-06-12T02:41:35.811Z,41.45
2018-06-12T02:44:04.442Z,35.35
2018-06-12T02:46:32.964Z,30.05
2018-06-12T02:49:01.474Z,28.45
2018-06-12T02:51:29.989Z,33.25
2018-06-12T02:53:58.489Z,25.82
2018-06-12T02:56:26.990Z,24.92
2018-06-12T02:58:55.521Z,26.60
2018-06-12T03:01:24.063Z,25.23
2018-06-12T03:03:52.583Z,22.58
2018-06-12T03:06:21.080Z,22.62
2018-06-12T03:08:49.640Z,22.98
2018-06-12T03:11:18.178Z,15.90
2018-06-12T03:13:46.687Z,20.75
2018-06-12T03:16:15.223Z,25.52
2018-06-12T03:18:43.716Z,19.37
2018-06-12T03:21:12.233Z,20.62
2018-06-12T03:23:40.716Z,21.37
2018-06-12T03:26:09.216Z,16.70
2018-06-12T03:28:37.758Z,22.42
2018-06-12T03:31:06.283Z,17.85
2018-06-12T03:33:34.831Z,28.42
2018-06-12T03:36:03.412Z,16.35
2018-06-12T03:38:31.970Z,18.10
2018-06-12T03:41:00.500Z,13.83
2018-06-12T03:43:29.022Z,15.08
2018-06-12T03:45:57.554Z,19.45
2018-06-12T03:48:26.121Z,15.65
2018-06-12T03:50:54.619Z,17.02
2018-06-12T03:53:23.178Z,17.67
2018-06-12T03:55:51.676Z,24.27
2018-06-12T03:58:20.204Z,21.80
2018-06-12T04:00:48.701Z,19.17
2018-06-12T04:03:17.202Z,21.17
2018-06-12T04:05:45.712Z,13.15
2018-06-12T04:08:14.208Z,15.20
2018-06-12T04:10:42.704Z,14.53
2018-06-12T04:13:11.230Z,15.03
2018-06-12T04:15:39.751Z,14.90
2018-06-12T04:18:08.242Z,20.50
2018-06-12T04:20:36.796Z,15.95
2018-06-12T04:23:05.329Z,15.40
2018-06-12T04:25:33.882Z,18.95
2018-06-12T04:28:02.453Z,13.68
2018-06-12T04:30:31.018Z,16.90
2018-06-12T04:32:59.600Z,19.07
2018-06-12T04:35:28.097Z,16.30
2018-06-12T04:37:56.848Z,18.87
2018-06-12T04:40:25.403Z,17.23
2018-06-12T04:42:53.960Z,18.17
2018-06-12T04:45:22.488Z,17.77
2018-06-12T04:47:51.010Z,18.65
2018-06-12T04:50:19.565Z,15.00
2018-06-12T04:52:48.101Z,19.98
2018-06-12T04:55:16.615Z,19.57
2018-06-12T04:57:45.174Z,17.55
2018-06-12T05:00:13.696Z,19.80
2018-06-12T05:02:42.214Z,20.52
2018-06-12T05:05:10.726Z,21.00
2018-06-12T05:07:39.272Z,17.52
2018-06-12T05:10:07.812Z,26.93
2018-06-12T05:12:36.356Z,17.17
2018-06-12T05:15:04.916Z,17.52
2018-06-12T05:17:33.434Z,15.50
2018-06-12T05:20:01.969Z,20.12
2018-06-12T05:22:30.490Z,17.52
2018-06-12T05:24:59.010Z,17.65
2018-06-12T05:27:27.598Z,19.62
2018-06-12T05:29:56.136Z,27.32
2018-06-12T05:32:24.673Z,16.02
2018-06-12T05:34:53.209Z,13.48
2018-06-12T05:37:21.710Z,14.68
2018-06-12T05:39:50.211Z,15.48
2018-06-12T05:42:18.721Z,18.55
2018-06-12T05:44:47.278Z,19.87
2018-06-12T05:47:15.818Z,14.30
2018-06-12T05:49:44.357Z,18.40
2018-06-12T05:52:12.870Z,21.02
2018-06-12T05:54:41.385Z,22.87
2018-06-12T05:57:09.906Z,28.80
2018-06-12T05:59:38.438Z,16.93
2018-06-12T06:02:07.612Z,19.50
2018-06-12T06:04:36.113Z,22.62
2018-06-12T06:07:04.900Z,21.35
2018-06-12T06:09:33.442Z,18.35
2018-06-12T06:12:02.022Z,15.05
2018-06-12T06:14:30.554Z,23.32
2018-06-12T06:16:59.131Z,21.30
2018-06-12T06:19:27.637Z,16.95
2018-06-12T06:21:56.450Z,25.82
2018-06-12T06:24:24.950Z,18.20
2018-06-12T06:26:53.511Z,16.57
2018-06-12T06:29:22.089Z,14.47
2018-06-12T06:31:50.647Z,21.10
2018-06-12T06:34:19.200Z,18.60
2018-06-12T06:36:47.691Z,15.40
2018-06-12T06:39:16.213Z,21.15
2018-06-12T06:41:44.768Z,17.27
2018-06-12T06:44:13.346Z,22.02
2018-06-12T06:46:41.878Z,19.82
2018-06-12T06:49:10.403Z,18.10
2018-06-12T06:51:39.016Z,19.62
2018-06-12T06:54:07.601Z,16.62
2018-06-12T06:56:36.142Z,22.58
2018-06-12T06:59:05.703Z,23.75
2018-06-12T07:01:34.234Z,27.82
2018-06-12T07:04:02.804Z,20.27
2018-06-12T07:06:31.330Z,23.35
2018-06-12T07:08:59.847Z,16.27
2018-06-12T07:11:28.370Z,18.30
2018-06-12T07:13:56.898Z,17.87
2018-06-12T07:16:25.400Z,13.48
2018-06-12T07:18:53.911Z,14.23
2018-06-12T07:21:24.111Z,20.97
2018-06-12T07:23:52.660Z,17.82
2018-06-12T07:26:21.198Z,23.00
2018-06-12T07:28:49.726Z,18.65
2018-06-12T07:31:18.253Z,16.77
2018-06-12T07:33:46.854Z,19.57
2018-06-12T07:36:15.452Z,21.15
2018-06-12T07:38:43.966Z,16.73
2018-06-12T07:41:13.577Z,20.43
2018-06-12T07:43:42.074Z,17.10
2018-06-12T07:46:10.650Z,23.52
2018-06-12T07:48:39.183Z,19.62
2018-06-12T07:51:07.691Z,15.72
2018-06-12T07:53:36.207Z,24.05
2018-06-12T07:56:04.753Z,23.20
2018-06-12T07:58:33.260Z,23.62
2018-06-12T08:01:03.939Z,23.87
2018-06-12T08:03:32.437Z,22.50
2018-06-12T08:06:00.984Z,23.67
2018-06-12T08:08:29.496Z,24.43
2018-06-12T08:10:58.437Z,25.47
2018-06-12T08:13:26.995Z,23.90
2018-06-12T08:15:55.520Z,23.55
2018-06-12T08:18:24.069Z,26.70
2018-06-12T08:20:52.703Z,25.03
2018-06-12T08:23:21.217Z,32.47
2018-06-12T08:25:49.737Z,17.80
2018-06-12T08:28:18.631Z,23.93
2018-06-12T08:30:47.158Z,26.10
2018-06-12T08:33:15.677Z,21.30
2018-06-12T08:35:44.205Z,28.80
2018-06-12T08:38:12.719Z,17.47
2018-06-12T08:40:41.248Z,19.70
2018-06-12T08:43:09.833Z,25.20
2018-06-12T08:45:38.382Z,19.60
2018-06-12T08:48:06.889Z,20.10
2018-06-12T08:50:35.388Z,18.17
2018-06-12T08:53:03.998Z,20.53
2018-06-12T08:55:32.497Z,16.90
2018-06-12T08:58:01.059Z,18.83
2018-06-12T09:00:29.598Z,20.80
2018-06-12T09:02:58.166Z,26.07
2018-06-12T09:05:26.742Z,19.80
2018-06-12T09:07:55.307Z,20.87
2018-06-12T09:10:23.927Z,19.23
2018-06-12T09:12:52.442Z,24.10
2018-06-12T09:15:20.963Z,21.40
2018-06-12T09:17:52.940Z,18.03
2018-06-12T09:20:21.465Z,21.70
2018-06-12T09:22:49.966Z,20.23
2018-06-12T09:25:18.503Z,20.83
2018-06-12T09:27:50.488Z,21.40
2018-06-12T09:30:19.204Z,24.80
2018-06-12T09:32:47.420Z,23.20
2018-06-12T09:35:15.952Z,22.70
2018-06-12T09:37:44.491Z,23.90
2018-06-12T09:40:13.063Z,16.70
2018-06-12T09:42:41.594Z,21.80
2018-06-12T09:45:10.094Z,25.30
2018-06-12T09:47:38.618Z,20.27
2018-06-12T09:50:07.112Z,19.53
2018-06-12T09:52:35.607Z,23.13
2018-06-12T09:55:04.418Z,15.93
2018-06-12T09:57:32.934Z,15.87
2018-06-12T10:00:01.449Z,14.30
2018-06-12T10:02:29.966Z,14.83
2018-06-12T10:04:58.470Z,21.30
2018-06-12T10:07:27.003Z,17.27
2018-06-12T10:09:55.537Z,19.63
2018-06-12T10:12:24.053Z,16.27
2018-06-12T10:14:52.573Z,18.10
2018-06-12T10:17:21.237Z,17.77
2018-06-12T10:19:49.721Z,17.93
2018-06-12T10:22:18.229Z,16.83
2018-06-12T10:24:46.714Z,15.93
2018-06-12T10:27:15.243Z,27.67
2018-06-12T10:29:43.734Z,14.57
2018-06-12T10:32:12.253Z,12.77
2018-06-12T10:34:40.780Z,23.00
2018-06-12T10:37:09.359Z,16.60
2018-06-12T10:39:37.860Z,17.43
2018-06-12T10:42:06.385Z,20.93
2018-06-12T10:44:34.879Z,14.47
2018-06-12T10:47:03.408Z,16.40
2018-06-12T10:49:31.919Z,22.83
2018-06-12T10:52:00.454Z,18.17
2018-06-12T10:54:28.975Z,13.40
2018-06-12T10:56:57.598Z,16.07
2018-06-12T10:59:26.143Z,17.13
2018-06-12T11:01:54.665Z,15.97
2018-06-12T11:04:23.147Z,13.23
2018-06-12T11:06:51.662Z,13.73
2018-06-12T11:09:20.191Z,22.40
2018-06-12T11:11:49.083Z,16.80
2018-06-12T11:14:17.619Z,19.23
2018-06-12T11:16:46.150Z,16.57
2018-06-12T11:19:14.720Z,15.30
2018-06-12T11:21:43.231Z,16.00
2018-06-12T11:24:11.725Z,22.37
2018-06-12T11:26:40.257Z,19.37
2018-06-12T11:29:08.966Z,25.10
2018-06-12T11:31:37.580Z,14.40
2018-06-12T11:34:06.111Z,19.50
2018-06-12T11:36:34.668Z,25.10
2018-06-12T11:39:03.743Z,20.07
2018-06-12T11:41:32.257Z,17.77
2018-06-12T11:44:00.785Z,20.80
2018-06-12T11:46:29.318Z,18.97
2018-06-12T11:48:58.619Z,16.30
2018-06-12T11:51:29.333Z,14.93
2018-06-12T11:53:58.460Z,22.60
2018-06-12T11:56:27.030Z,16.40
2018-06-12T11:58:55.519Z,15.32
2018-06-12T12:01:24.202Z,16.32
2018-06-12T12:03:52.840Z,12.70
2018-06-12T12:06:21.381Z,14.95
2018-06-12T12:08:50.082Z,16.70
2018-06-12T12:11:19.815Z,22.03
2018-06-12T12:13:48.977Z,16.00
2018-06-12T12:16:17.546Z,20.12
2018-06-12T12:18:46.116Z,19.37
2018-06-12T12:21:14.781Z,29.77
2018-06-12T12:23:43.348Z,15.50
2018-06-12T12:26:11.885Z,13.53
2018-06-12T12:28:40.548Z,15.43
2018-06-12T12:31:09.061Z,12.03
2018-06-12T12:33:37.619Z,11.60
2018-06-12T12:36:10.550Z,20.80
2018-06-12T12:38:39.078Z,10.87
2018-06-12T12:41:07.661Z,15.53
2018-06-12T12:43:36.219Z,18.07
2018-06-12T12:46:05.649Z,15.35
2018-06-12T12:48:34.190Z,13.90
2018-06-12T12:51:02.692Z,11.60
2018-06-12T12:53:31.204Z,10.53
2018-06-12T12:55:59.723Z,14.70
2018-06-12T12:58:28.330Z,9.00
2018-06-12T13:00:56.882Z,19.10
2018-06-12T13:03:25.429Z,8.23
2018-06-12T13:05:53.936Z,10.10
2018-06-12T13:08:22.492Z,13.03
2018-06-12T13:10:51.015Z,10.40
2018-06-12T13:13:19.587Z,13.07
2018-06-12T13:15:48.150Z,20.93
2018-06-12T13:18:16.690Z,14.87
2018-06-12T13:20:45.205Z,12.43
2018-06-12T13:23:13.725Z,7.37
2018-06-12T13:25:42.251Z,10.37
2018-06-12T13:28:10.849Z,8.93
2018-06-12T13:30:39.400Z,13.50
2018-06-12T13:33:08.484Z,10.97
2018-06-12T13:35:37.022Z,15.23
2018-06-12T13:38:05.550Z,13.53
2018-06-12T13:40:34.104Z,10.47
2018-06-12T13:43:02.679Z,10.80
2018-06-12T13:45:31.207Z,8.10
2018-06-12T13:47:59.715Z,9.67
2018-06-12T13:50:28.250Z,6.50
2018-06-12T13:52:57.396Z,8.27
2018-06-12T13:55:25.953Z,12.77
2018-06-12T13:57:54.494Z,7.50
2018-06-12T14:00:23.022Z,7.13
2018-06-12T14:02:51.558Z,10.87
2018-06-12T14:05:20.070Z,7.60
2018-06-12T14:07:48.583Z,8.03
2018-06-12T14:10:17.101Z,10.60
2018-06-12T14:12:45.623Z,9.80
2018-06-12T14:15:14.136Z,8.50
2018-06-12T14:17:42.656Z,8.90
2018-06-12T14:20:11.171Z,11.20
2018-06-12T14:22:39.694Z,10.40
2018-06-12T14:25:08.217Z,13.90
2018-06-12T14:27:36.722Z,7.93
2018-06-12T14:30:05.423Z,7.97
2018-06-12T14:32:33.946Z,7.10
2018-06-12T14:35:02.484Z,13.80
2018-06-12T14:37:31.036Z,10.33
2018-06-12T14:39:59.560Z,6.13
2018-06-12T14:42:28.066Z,10.38
2018-06-12T14:44:56.598Z,7.50
2018-06-12T14:47:25.118Z,8.87
2018-06-12T14:49:53.658Z,7.53
2018-06-12T14:52:22.237Z,7.80
2018-06-12T14:54:50.752Z,7.50
2018-06-12T14:57:19.286Z,9.67
2018-06-12T14:59:47.828Z,7.60
2018-06-12T15:02:16.363Z,7.80
2018-06-12T15:04:44.911Z,10.27
2018-06-12T15:07:13.435Z,6.73
2018-06-12T15:09:41.996Z,7.87
2018-06-12T15:12:10.520Z,6.63
2018-06-12T15:14:39.032Z,12.13
2018-06-12T15:17:07.539Z,6.73
2018-06-12T15:19:36.021Z,8.60
2018-06-12T15:22:04.555Z,13.83
2018-06-12T15:24:33.048Z,8.40
2018-06-12T15:27:01.562Z,10.97
2018-06-12T15:29:30.151Z,10.50
2018-06-12T15:31:58.667Z,7.20
2018-06-12T15:34:27.183Z,9.73
2018-06-12T15:36:55.714Z,7.80
2018-06-12T15:39:24.234Z,14.37
2018-06-12T15:41:52.771Z,6.70
2018-06-12T15:44:21.484Z,7.73
2018-06-12T15:46:50.011Z,7.50
2018-06-12T15:49:18.562Z,8.33
2018-06-12T15:51:47.117Z,8.80
2018-06-12T15:54:15.628Z,6.93
2018-06-12T15:56:44.140Z,7.60
2018-06-12T15:59:12.646Z,8.90
2018-06-12T16:01:41.210Z,8.63
2018-06-12T16:04:09.690Z,13.90
2018-06-12T16:06:38.224Z,6.50
2018-06-12T16:09:08.590Z,7.07
2018-06-12T16:11:37.150Z,9.50
2018-06-12T16:14:05.703Z,7.50
2018-06-12T16:16:34.222Z,8.93
2018-06-12T16:19:02.748Z,7.73
2018-06-12T16:21:31.292Z,4.83
2018-06-12T16:23:59.481Z,8.30
2018-06-12T16:26:28.203Z,6.97
2018-06-12T16:28:56.800Z,6.37
2018-06-12T16:31:25.371Z,8.27
2018-06-12T16:33:53.978Z,10.10
2018-06-12T16:36:22.555Z,5.83
2018-06-12T16:38:51.250Z,8.10
2018-06-12T16:41:19.794Z,10.57
2018-06-12T16:43:48.264Z,4.90
2018-06-12T16:46:16.802Z,21.73
2018-06-12T16:48:45.330Z,6.93
2018-06-12T16:51:13.897Z,5.07
2018-06-12T16:53:42.414Z,5.07
2018-06-12T16:56:10.949Z,5.27
2018-06-12T16:58:39.531Z,8.07
2018-06-12T17:01:08.082Z,4.43
2018-06-12T17:03:36.697Z,12.80
2018-06-12T17:06:05.237Z,6.17
2018-06-12T17:08:33.815Z,4.93
2018-06-12T17:11:02.430Z,9.63
2018-06-12T17:13:30.941Z,5.97
2018-06-12T17:15:59.519Z,5.23
2018-06-12T17:18:28.048Z,5.25
2018-06-12T17:20:56.603Z,7.00
2018-06-12T17:23:25.226Z,6.83
2018-06-12T17:25:53.774Z,5.30
2018-06-12T17:28:22.390Z,5.40
2018-06-12T17:30:50.921Z,6.17
2018-06-12T17:33:19.476Z,6.95
2018-06-12T17:35:48.010Z,4.60
2018-06-12T17:38:16.564Z,6.50
2018-06-12T17:40:45.119Z,7.60
2018-06-12T17:43:13.628Z,5.17
2018-06-12T17:45:42.174Z,7.33
2018-06-12T17:48:10.715Z,5.50
2018-06-12T17:50:39.209Z,5.43
2018-06-12T17:53:07.730Z,6.90
2018-06-12T17:55:36.298Z,9.80
2018-06-12T17:58:04.871Z,6.93
2018-06-12T18:00:33.482Z,8.90
2018-06-12T18:03:02.036Z,6.03
2018-06-12T18:05:30.610Z,6.23
2018-06-12T18:07:59.160Z,9.28
2018-06-12T18:10:27.719Z,7.40
2018-06-12T18:12:56.247Z,6.75
2018-06-12T18:15:24.777Z,7.70
2018-06-12T18:17:53.275Z,9.27
2018-06-12T18:20:22.132Z,7.97
2018-06-12T18:22:50.648Z,5.60
2018-06-12T18:25:19.155Z,7.10
2018-06-12T18:27:47.682Z,6.30
2018-06-12T18:30:16.252Z,6.90
2018-06-12T18:32:44.762Z,5.40
2018-06-12T18:35:16.101Z,7.47
2018-06-12T18:37:44.692Z,8.20
2018-06-12T18:40:13.219Z,7.58
2018-06-12T18:42:41.726Z,5.30
2018-06-12T18:45:11.135Z,6.08
2018-06-12T18:47:40.810Z,6.08
2018-06-12T18:50:09.418Z,10.13
2018-06-12T18:52:41.374Z,10.10
2018-06-12T18:55:10.205Z,6.90
2018-06-12T18:57:39.711Z,5.47
2018-06-12T19:00:08.266Z,8.33
2018-06-12T19:02:36.873Z,6.20
2018-06-12T19:05:05.390Z,7.80
2018-06-12T19:07:33.910Z,5.40
2018-06-12T19:10:02.451Z,7.40
2018-06-12T19:12:30.983Z,6.60
2018-06-12T19:14:59.492Z,6.67
2018-06-12T19:17:27.680Z,9.53
2018-06-12T19:19:56.229Z,5.83
2018-06-12T19:22:26.125Z,7.23
2018-06-12T19:24:54.757Z,6.13
2018-06-12T19:27:23.279Z,7.23
2018-06-12T19:29:51.816Z,6.50
2018-06-12T19:32:20.346Z,6.27
2018-06-12T19:34:48.856Z,8.10
2018-06-12T19:37:17.444Z,10.03
2018-06-12T19:39:45.970Z,6.70
2018-06-12T19:42:14.472Z,6.90
2018-06-12T19:44:42.997Z,7.30
2018-06-12T19:47:11.498Z,7.40
2018-06-12T19:49:40.033Z,12.57
2018-06-12T19:52:08.520Z,8.15
2018-06-12T19:54:37.076Z,8.13
2018-06-12T19:57:05.722Z,7.43
2018-06-12T19:59:34.266Z,7.23
2018-06-12T20:02:02.803Z,10.37
2018-06-12T20:04:32.214Z,15.03
2018-06-12T20:07:00.711Z,8.50
2018-06-12T20:09:29.203Z,9.07
2018-06-12T20:11:57.736Z,13.23
2018-06-12T20:14:26.258Z,11.12
2018-06-12T20:16:54.777Z,8.37
2018-06-12T20:19:23.411Z,11.50
2018-06-12T20:21:51.961Z,8.05
2018-06-12T20:24:20.482Z,11.12
2018-06-12T20:26:49.039Z,13.53
2018-06-12T20:29:17.584Z,13.50
2018-06-12T20:31:46.097Z,8.73
2018-06-12T20:34:14.646Z,10.50
2018-06-12T20:36:43.254Z,11.38
2018-06-12T20:39:11.769Z,9.40
2018-06-12T20:41:40.268Z,9.13
2018-06-12T20:44:08.806Z,8.13
2018-06-12T20:46:37.336Z,7.75
2018-06-12T20:49:05.894Z,9.38
2018-06-12T20:51:34.446Z,11.70
2018-06-12T20:54:02.960Z,15.00
2018-06-12T20:56:31.513Z,10.95
2018-06-12T20:59:00.094Z,11.03
2018-06-12T21:01:28.654Z,10.18
2018-06-12T21:03:57.263Z,13.22
2018-06-12T21:06:25.818Z,8.80
2018-06-12T21:08:54.332Z,8.23
2018-06-12T21:11:22.964Z,15.98
2018-06-12T21:13:51.509Z,10.15
2018-06-12T21:16:20.041Z,11.00
2018-06-12T21:18:48.604Z,8.05
2018-06-12T21:21:17.123Z,9.88
2018-06-12T21:23:45.637Z,10.20
2018-06-12T21:26:14.186Z,10.55
2018-06-12T21:28:42.970Z,12.73
2018-06-12T21:31:11.509Z,11.12
2018-06-12T21:33:40.022Z,11.75
2018-06-12T21:36:08.590Z,9.75
2018-06-12T21:38:37.187Z,9.18
2018-06-12T21:41:05.730Z,15.15
2018-06-12T21:43:34.249Z,8.35
2018-06-12T21:46:02.791Z,13.65
2018-06-12T21:48:31.312Z,8.78
2018-06-12T21:50:59.845Z,10.88
2018-06-12T21:53:28.363Z,15.10
2018-06-12T21:55:56.865Z,9.45
2018-06-12T21:58:25.423Z,14.60
2018-06-12T22:00:54.011Z,11.03
2018-06-12T22:03:22.543Z,10.48
2018-06-12T22:05:51.154Z,8.85
2018-06-12T22:08:19.666Z,9.33
2018-06-12T22:10:48.185Z,7.70
2018-06-12T22:13:16.682Z,8.50
2018-06-12T22:15:45.215Z,9.95
2018-06-12T22:18:13.733Z,9.98
2018-06-12T22:20:42.213Z,7.22
2018-06-12T22:23:10.754Z,7.47
2018-06-12T22:25:39.296Z,7.12
2018-06-12T22:28:07.821Z,13.30
2018-06-12T22:30:36.440Z,9.55
2018-06-12T22:33:05.007Z,9.95
2018-06-12T22:35:33.528Z,6.17
2018-06-12T22:38:02.081Z,6.35
2018-06-12T22:40:31.933Z,7.80
2018-06-12T22:43:00.438Z,5.78
2018-06-12T22:45:28.958Z,10.05
2018-06-12T22:47:57.476Z,10.28
2018-06-12T22:50:25.964Z,7.67
2018-06-12T22:52:54.477Z,5.80
2018-06-12T22:55:22.968Z,6.22
2018-06-12T22:57:51.466Z,7.87
2018-06-12T23:00:21.237Z,6.08
2018-06-12T23:02:49.779Z,5.78
2018-06-12T23:05:18.308Z,9.48
2018-06-12T23:07:46.809Z,5.03
2018-06-12T23:10:15.340Z,7.33
2018-06-12T23:12:43.846Z,8.00
2018-06-12T23:15:12.368Z,7.58
2018-06-12T23:17:40.875Z,11.00
2018-06-12T23:20:20.785Z,6.95
2018-06-12T23:22:49.312Z,4.90
2018-06-12T23:25:17.996Z,5.30
2018-06-12T23:27:46.523Z,7.60
2018-06-12T23:30:15.028Z,5.78
2018-06-12T23:32:43.566Z,5.15
2018-06-12T23:35:12.080Z,9.98
2018-06-12T23:37:40.566Z,6.92
2018-06-12T23:40:09.078Z,9.68
2018-06-12T23:42:37.596Z,6.75
2018-06-12T23:45:06.128Z,5.83
2018-06-12T23:47:34.633Z,7.83
2018-06-12T23:50:03.152Z,5.67
2018-06-12T23:52:31.665Z,10.25
2018-06-12T23:55:00.166Z,6.00
2018-06-12T23:57:28.698Z,6.55
2018-06-12T23:59:57.192Z,6.50
